• Join FlightAware (Why Join?)
  • Login
  • US Flag 
09:37PM EDT


 

Airport Tracker/Info


-or-


 

Live Flight TrackerFlight Track Log ✈ ZS-SNC ✈ 14-May-2013 ✈ DNMM / LOS - FAOR / JNB

Flight Track Log - Related Links

Times and Time Zones

All times are in EDT time to prevent confusion due to time zone crossing. See the ZS-SNC flight status page for this flight to view local times or setup timezone preferences in your user account.

Time Position Orientation Groundspeed Altitude Reporting Facility
EDT Latitude Longitude Course Direction KTS MPH feet Rate Location/Type
07:21PM -5.2913 11.7343 145° Southeast  Level Estimated
07:22PM -5.3953 11.8085 145° Southeast  Level Estimated
07:23PM -5.4993 11.8827 145° Southeast  Level Estimated
07:24PM -5.6032 11.9569 145° Southeast  Level Estimated
07:25PM -5.7072 12.0312 145° Southeast  Level Estimated
07:26PM -5.8111 12.1054 145° Southeast  Level Estimated
07:27PM -5.9150 12.1797 145° Southeast  Level Estimated
07:28PM -6.0190 12.2541 145° Southeast  Level Estimated
07:29PM -6.1229 12.3284 145° Southeast  Level Estimated
07:30PM -6.2268 12.4028 145° Southeast  Level Estimated
07:31PM -6.3307 12.4772 145° Southeast  Level Estimated
07:32PM -6.4345 12.5517 145° Southeast  Level Estimated
07:33PM -6.5384 12.6262 145° Southeast  Level Estimated
07:34PM -6.6423 12.7007 145° Southeast  Level Estimated
07:35PM -6.7461 12.7752 145° Southeast  Level Estimated
07:36PM -6.8500 12.8498 145° Southeast  Level Estimated
07:37PM -6.9538 12.9244 145° Southeast  Level Estimated
07:38PM -7.0576 12.9990 144° Southeast  Level Estimated
07:39PM -7.1614 13.0737 144° Southeast  Level Estimated
07:40PM -7.2652 13.1484 144° Southeast  Level Estimated
07:41PM -7.3690 13.2231 144° Southeast  Level Estimated
07:42PM -7.4728 13.2979 144° Southeast  Level Estimated
07:43PM -7.5765 13.3727 144° Southeast  Level Estimated
07:44PM -7.6802 13.4475 144° Southeast  Level Estimated
07:45PM -7.7840 13.5224 144° Southeast  Level Estimated
07:46PM -7.8877 13.5974 144° Southeast  Level Estimated
07:47PM -7.9914 13.6723 144° Southeast  Level Estimated
07:48PM -8.0951 13.7473 144° Southeast  Level Estimated
07:49PM -8.1987 13.8223 144° Southeast  Level Estimated
07:50PM -8.3024 13.8974 144° Southeast  Level Estimated
07:51PM -8.4061 13.9725 144° Southeast  Level Estimated
07:52PM -8.5097 14.0477 144° Southeast  Level Estimated
07:53PM -8.6133 14.1229 144° Southeast  Level Estimated
07:54PM -8.7169 14.1981 144° Southeast  Level Estimated
07:55PM -8.8205 14.2734 144° Southeast  Level Estimated
07:56PM -8.9241 14.3487 144° Southeast  Level Estimated
07:57PM -9.0276 14.4240 144° Southeast  Level Estimated
07:58PM -9.1312 14.4994 144° Southeast  Level Estimated
07:59PM -9.2347 14.5749 144° Southeast  Level Estimated
08:00PM -9.3382 14.6504 144° Southeast  Level Estimated
08:01PM -9.4417 14.7259 144° Southeast  Level Estimated
08:02PM -9.5452 14.8015 144° Southeast  Level Estimated
08:03PM -9.6487 14.8771 144° Southeast  Level Estimated
08:04PM -9.7521 14.9528 144° Southeast  Level Estimated
08:05PM -9.8555 15.0285 144° Southeast  Level Estimated
08:06PM -9.9589 15.1043 144° Southeast  Level Estimated
08:07PM -10.0623 15.1801 144° Southeast  Level Estimated
08:08PM -10.1657 15.2560 144° Southeast  Level Estimated
08:09PM -10.2691 15.3319 144° Southeast  Level Estimated
08:10PM -10.3724 15.4079 144° Southeast  Level Estimated
08:11PM -10.4757 15.4839 144° Southeast  Level Estimated
08:12PM -10.5791 15.5599 144° Southeast  Level Estimated
08:13PM -10.6824 15.6361 144° Southeast  Level Estimated
08:14PM -10.7856 15.7122 144° Southeast  Level Estimated
08:15PM -10.8889 15.7884 144° Southeast  Level Estimated
08:16PM -10.9921 15.8647 144° Southeast  Level Estimated
08:17PM -11.0953 15.9410 144° Southeast  Level Estimated
08:18PM -11.1985 16.0174 144° Southeast  Level Estimated
08:19PM -11.3017 16.0939 144° Southeast  Level Estimated
08:20PM -11.4049 16.1703 144° Southeast  Level Estimated
08:21PM -11.5080 16.2469 144° Southeast  Level Estimated
08:22PM -11.6111 16.3235 144° Southeast  Level Estimated
08:23PM -11.7142 16.4002 144° Southeast  Level Estimated
08:24PM -11.8173 16.4769 144° Southeast  Level Estimated
08:25PM -11.9204 16.5536 144° Southeast  Level Estimated
08:26PM -12.0234 16.6305 144° Southeast  Level Estimated
08:27PM -12.1264 16.7074 144° Southeast  Level Estimated
08:28PM -12.2331 16.7871 144° Southeast  Level Estimated
08:29PM -12.3397 16.8668 144° Southeast  Level Estimated
08:30PM -12.4463 16.9467 144° Southeast  Level Estimated
08:31PM -12.5529 17.0266 144° Southeast  Level Estimated
08:32PM -12.6595 17.1065 144° Southeast  Level Estimated
08:33PM -12.7661 17.1865 144° Southeast  Level Estimated
08:34PM -12.8726 17.2666 144° Southeast  Level Estimated
08:35PM -12.9791 17.3468 144° Southeast  Level Estimated
08:36PM -13.0856 17.4270 144° Southeast  Level Estimated
08:37PM -13.1920 17.5073 144° Southeast  Level Estimated
08:38PM -13.2985 17.5877 144° Southeast  Level Estimated
08:39PM -13.4049 17.6681 144° Southeast  Level Estimated
08:40PM -13.5113 17.7486 144° Southeast  Level Estimated
08:41PM -13.6176 17.8292 144° Southeast  Level Estimated
08:42PM -13.7240 17.9099 144° Southeast  Level Estimated
08:43PM -13.8302 17.9906 144° Southeast  Level Estimated
08:44PM -13.9365 18.0714 144° Southeast  Level Estimated
08:45PM -14.0428 18.1523 144° Southeast  Level Estimated
08:46PM -14.1490 18.2333 144° Southeast  Level Estimated
08:47PM -14.2552 18.3143 144° Southeast  Level Estimated
08:48PM -14.3614 18.3954 143° Southeast  Level Estimated
08:49PM -14.4675 18.4766 143° Southeast  Level Estimated
08:50PM -14.5736 18.5578 143° Southeast  Level Estimated
08:51PM -14.6797 18.6392 143° Southeast  Level Estimated
08:52PM -14.7858 18.7206 143° Southeast  Level Estimated
08:53PM -14.8918 18.8021 143° Southeast  Level Estimated
08:54PM -14.9978 18.8837 143° Southeast  Level Estimated
08:55PM -15.1038 18.9653 143° Southeast  Level Estimated
08:56PM -15.2097 19.0471 143° Southeast  Level Estimated
08:57PM -15.3156 19.1289 143° Southeast  Level Estimated
08:58PM -15.4215 19.2108 143° Southeast  Level Estimated
08:59PM -15.5273 19.2928 143° Southeast  Level Estimated
09:00PM -15.6332 19.3749 143° Southeast  Level Estimated
09:01PM -15.7389 19.4570 143° Southeast  Level Estimated
09:02PM -15.8447 19.5393 143° Southeast  Level Estimated
09:03PM -15.9504 19.6216 143° Southeast  Level Estimated
09:04PM -16.0561 19.7040 143° Southeast  Level Estimated
09:05PM -16.1618 19.7865 143° Southeast  Level Estimated
09:06PM -16.2674 19.8691 143° Southeast  Level Estimated
09:07PM -16.3730 19.9518 143° Southeast  Level Estimated
09:08PM -16.4786 20.0346 143° Southeast  Level Estimated
09:09PM -16.5841 20.1174 143° Southeast  Level Estimated
09:10PM -16.6896 20.2004 143° Southeast  Level Estimated
09:11PM -16.7951 20.2834 143° Southeast  Level Estimated
09:12PM -16.9005 20.3666 143° Southeast  Level Estimated
09:13PM -17.0059 20.4498 143° Southeast  Level Estimated
09:14PM -17.1113 20.5331 143° Southeast  Level Estimated
09:15PM -17.2167 20.6165 143° Southeast  Level Estimated
09:16PM -17.3220 20.7000 143° Southeast  Level Estimated
09:17PM -17.4272 20.7836 143° Southeast  Level Estimated
09:18PM -17.5324 20.8673 143° Southeast  Level Estimated
09:19PM -17.6376 20.9511 143° Southeast  Level Estimated
09:20PM -17.7428 21.0350 143° Southeast  Level Estimated
09:21PM -17.8479 21.1190 143° Southeast  Level Estimated
09:22PM -17.9530 21.2031 143° Southeast  Level Estimated
09:23PM -18.0581 21.2873 143° Southeast  Level Estimated
09:24PM -18.1631 21.3716 143° Southeast  Level Estimated
09:25PM -18.2681 21.4560 143° Southeast  Level Estimated
09:26PM -18.3730 21.5405 143° Southeast  Level Estimated
09:27PM -18.4779 21.6251 143° Southeast  Level Estimated
09:28PM -18.5828 21.7099 143° Southeast  Level Estimated
09:29PM -18.6876 21.7947 143° Southeast  Level Estimated
09:30PM -18.7924 21.8796 143° Southeast  Level Estimated
09:31PM -18.8972 21.9646 142° Southeast  Level Estimated
09:32PM -19.0019 22.0497 142° Southeast  Level Estimated
09:33PM -19.1066 22.1350 142° Southeast  Level Estimated
09:34PM -19.2112 22.2203 142° Southeast  Level Estimated
09:35PM -19.3158 22.3058 142° Southeast  Level Estimated
09:36PM -19.4204 22.3913 142° Southeast  Level Estimated
09:37PM -19.5249 22.4770 142° Southeast  Level Estimated
09:38PM -19.6294 22.5628 142° Southeast  Level Estimated
09:39PM -19.7338 22.6487 142° Southeast  Level Estimated
09:40PM -19.8382 22.7347 142° Southeast  Level Estimated
09:41PM -19.9425 22.8208 142° Southeast  Level Estimated
09:42PM -20.0469 22.9070 142° Southeast  Level Estimated
09:43PM -20.1511 22.9934 142° Southeast  Level Estimated
09:44PM -20.2554 23.0798 142° Southeast  Level Estimated
09:45PM -20.3595 23.1664 142° Southeast  Level Estimated
09:46PM -20.4637 23.2531 142° Southeast  Level Estimated
09:47PM -20.5678 23.3399 142° Southeast  Level Estimated
09:48PM -20.6718 23.4269 142° Southeast  Level Estimated
09:49PM -20.7759 23.5139 142° Southeast  Level Estimated
09:50PM -20.8798 23.6011 142° Southeast  Level Estimated
09:51PM -20.9837 23.6884 142° Southeast  Level Estimated
09:52PM -21.0876 23.7758 142° Southeast  Level Estimated
09:53PM -21.1915 23.8633 142° Southeast  Level Estimated
09:54PM -21.2952 23.9510 142° Southeast  Level Estimated
09:55PM -21.3990 24.0388 142° Southeast  Level Estimated
09:56PM -21.5027 24.1267 142° Southeast  Level Estimated
09:57PM -21.6063 24.2147 142° Southeast  Level Estimated
09:58PM -21.7099 24.3029 142° Southeast  Level Estimated
09:59PM -21.8135 24.3912 142° Southeast  Level Estimated
10:00PM -21.9170 24.4796 142° Southeast  Level Estimated
10:01PM -22.0205 24.5681 142° Southeast  Level Estimated
10:02PM -22.1239 24.6568 142° Southeast  Level Estimated
10:03PM -22.2273 24.7456 142° Southeast  Level Estimated
10:04PM -22.3306 24.8345 141° Southeast  Level Estimated
10:05PM -22.4339 24.9236 141° Southeast  Level Estimated
10:06PM -22.5371 25.0128 141° Southeast  Level Estimated
10:07PM -22.6403 25.1021 141° Southeast  Level Estimated
10:08PM -22.7434 25.1916 141° Southeast  Level Estimated
10:09PM -22.8465 25.2812 141° Southeast  Level Estimated
10:10PM -22.9495 25.3710 141° Southeast  Level Estimated
10:11PM -23.0525 25.4608 141° Southeast  Level Estimated
10:12PM -23.1554 25.5508 141° Southeast  Level Estimated
10:13PM -23.2582 25.6410 141° Southeast  Level Estimated
10:14PM -23.3611 25.7313 141° Southeast  Level Estimated
10:15PM -23.4638 25.8217 141° Southeast  Level Estimated
10:16PM -23.5666 25.9123 141° Southeast  Level Estimated
10:17PM -23.6692 26.0030 141° Southeast  Level Estimated
10:18PM -23.7718 26.0938 141° Southeast  Level Estimated
10:19PM -23.8744 26.1848 141° Southeast  Level Estimated
10:20PM -23.9769 26.2760 141° Southeast  Level Estimated
10:21PM -24.0793 26.3673 141° Southeast  Level Estimated
10:22PM -24.1817 26.4587 141° Southeast  Level Estimated
10:23PM -24.2841 26.5503 141° Southeast  Level Estimated
10:24PM -24.3864 26.6420 141° Southeast  Level Estimated
10:25PM -24.4886 26.7339 141° Southeast  Level Estimated
10:26PM -24.5908 26.8259 141° Southeast  Level Estimated
10:27PM -24.6929 26.9181 141° Southeast  Level Estimated
10:28PM -24.7950 27.0104 141° Southeast  Level Estimated
10:29PM -24.8970 27.1029 141° Southeast  Level Estimated
10:30PM -24.9989 27.1955 141° Southeast  Level Estimated
10:31PM -25.1008 27.2883 140° Southeast  Level Estimated
10:32PM -25.2026 27.3813 140° Southeast  Level Estimated
10:33PM -25.3044 27.4744 140° Southeast  Level Estimated
10:34PM -25.4061 27.5676 140° Southeast  Level Estimated
10:35PM -25.5078 27.6610 140° Southeast  Level Estimated
10:36PM -25.6094 27.7546 140° Southeast  Level Estimated
10:37PM -25.7109 27.8483 140° Southeast  Level Estimated
10:38PM -25.8124 27.9422 140° Southeast  Level Estimated
10:39PM -25.9138 28.0363 140° Southeast  Level Estimated
10:40PM -26.0152 28.1305 140° Southeast  Level Estimated
10:41PM -26.1165 28.2248 140° Southeast  Level Estimated
10:42PM -26.1392 28.2460 140° Southeast  Level Estimated
10:43PM -26.1392 28.2460 North  Level Estimated
10:44PM -26.1392 28.2460 North  Level Estimated
10:45PM -26.1392 28.2460 North  Level Estimated
10:46PM -26.1392 28.2460 North  Level Estimated
10:47PM -26.1392 28.2460 North  Level Estimated
10:48PM -26.1392 28.2460 North  Level Estimated
10:49PM -26.1392 28.2460 North  Level Estimated
10:50PM -26.1392 28.2460 North  Level Estimated
10:51PM -26.1392 28.2460 North  Level Estimated